createdAt,value
2022-09-03T05:02:13.985Z,4.10
2022-09-03T05:04:41.594Z,2.47
2022-09-03T05:07:09.976Z,3.83
2022-09-03T05:09:38.993Z,6.03
2022-09-03T05:12:07.637Z,5.23
2022-09-03T05:14:35.470Z,2.65
2022-09-03T05:17:03.118Z,3.50
2022-09-03T05:19:31.454Z,3.57
2022-09-03T05:21:59.054Z,3.88
2022-09-03T05:24:26.951Z,3.47
2022-09-03T05:26:56.002Z,3.42
2022-09-03T05:29:24.210Z,4.03
2022-09-03T05:31:51.942Z,3.30
2022-09-03T05:34:19.657Z,3.63
2022-09-03T05:36:49.818Z,3.38
2022-09-03T05:39:17.663Z,5.15
2022-09-03T05:41:45.750Z,5.25
2022-09-03T05:44:15.098Z,3.20
2022-09-03T05:46:42.774Z,5.50
2022-09-03T05:49:11.610Z,2.65
2022-09-03T05:51:40.355Z,5.50
2022-09-03T05:54:08.578Z,3.47
2022-09-03T05:56:39.661Z,3.80
2022-09-03T05:59:09.278Z,4.20
2022-09-03T06:01:40.035Z,5.93
2022-09-03T06:04:09.579Z,4.90
2022-09-03T06:06:39.305Z,6.28
2022-09-03T06:09:09.229Z,6.30
2022-09-03T06:11:37.822Z,4.65
2022-09-03T06:14:08.465Z,5.35
2022-09-03T06:16:39.913Z,4.70
2022-09-03T06:19:10.786Z,7.67
2022-09-03T06:21:42.738Z,5.88
2022-09-03T06:24:11.998Z,5.80
2022-09-03T06:26:41.041Z,6.10
2022-09-03T06:29:11.200Z,5.80
2022-09-03T06:31:40.506Z,7.25
2022-09-03T06:34:08.589Z,4.97
2022-09-03T06:36:36.291Z,5.00
2022-09-03T06:39:04.598Z,6.20
2022-09-03T06:41:35.371Z,8.00
2022-09-03T06:44:05.466Z,6.65
2022-09-03T06:46:34.813Z,5.60
2022-09-03T06:49:04.388Z,5.70
2022-09-03T06:51:33.987Z,5.18
2022-09-03T06:54:03.924Z,10.13
2022-09-03T06:56:37.311Z,5.35
2022-09-03T06:59:08.828Z,6.15
2022-09-03T07:01:37.357Z,7.10
2022-09-03T07:04:06.753Z,5.38
2022-09-03T07:06:38.499Z,4.95
2022-09-03T07:09:06.485Z,5.95
2022-09-03T07:11:35.857Z,6.38
2022-09-03T07:14:04.998Z,6.10
2022-09-03T07:16:35.360Z,5.20
2022-09-03T07:19:04.555Z,5.47
2022-09-03T07:21:36.691Z,4.30
2022-09-03T07:24:06.120Z,6.80
2022-09-03T07:26:35.888Z,6.27
2022-09-03T07:29:04.051Z,4.35
2022-09-03T07:31:33.967Z,4.18
2022-09-03T07:34:05.075Z,6.07
2022-09-03T07:36:43.142Z,5.38
2022-09-03T07:39:12.362Z,4.50
2022-09-03T07:41:42.686Z,5.03
2022-09-03T07:44:10.607Z,4.35
2022-09-03T07:46:40.468Z,3.47
2022-09-03T07:49:08.392Z,3.55
2022-09-03T07:51:39.481Z,5.40
2022-09-03T07:54:10.752Z,4.35
2022-09-03T07:56:39.357Z,4.72
2022-09-03T07:59:07.446Z,4.90
2022-09-03T08:01:36.935Z,3.90
2022-09-03T08:04:10.914Z,3.63
2022-09-03T08:06:40.995Z,4.72
2022-09-03T08:09:11.300Z,2.80
2022-09-03T08:11:41.552Z,4.57
2022-09-03T08:14:11.687Z,3.75
2022-09-03T08:16:41.852Z,3.60
2022-09-03T08:19:11.199Z,3.17
2022-09-03T08:21:42.164Z,4.43
2022-09-03T08:24:11.227Z,3.40
2022-09-03T08:26:41.616Z,4.43
2022-09-03T08:29:10.423Z,3.15
2022-09-03T08:31:38.690Z,3.95
2022-09-03T08:34:08.073Z,4.33
2022-09-03T08:36:38.220Z,3.57
2022-09-03T08:39:09.953Z,3.77
2022-09-03T08:41:50.289Z,4.07
2022-09-03T08:44:25.130Z,4.70
2022-09-03T08:46:56.848Z,5.95
2022-09-03T08:49:32.183Z,4.68
2022-09-03T08:52:03.508Z,3.83
2022-09-03T08:54:33.946Z,4.10
2022-09-03T08:57:03.776Z,3.70
2022-09-03T08:59:33.124Z,3.97
2022-09-03T09:02:12.117Z,4.47
2022-09-03T09:04:54.746Z,3.47
2022-09-03T09:07:28.460Z,4.57
2022-09-03T09:10:04.482Z,6.37
2022-09-03T09:12:44.196Z,4.75
2022-09-03T09:15:20.921Z,4.70
2022-09-03T09:17:58.809Z,6.68
2022-09-03T09:20:36.846Z,5.93
2022-09-03T09:23:06.819Z,7.03
2022-09-03T09:25:42.973Z,4.88
2022-09-03T09:28:17.940Z,5.72
2022-09-03T09:30:47.451Z,6.00
2022-09-03T09:33:15.847Z,6.40
2022-09-03T09:35:43.974Z,6.20
2022-09-03T09:38:13.151Z,6.15
2022-09-03T09:40:46.439Z,6.53
2022-09-03T09:43:17.245Z,6.10
2022-09-03T09:45:46.929Z,4.38
2022-09-03T09:48:21.319Z,6.90
2022-09-03T09:50:49.041Z,8.38
2022-09-03T09:53:21.600Z,5.85
2022-09-03T09:55:52.803Z,5.95
2022-09-03T09:58:23.893Z,6.50
2022-09-03T10:01:00.466Z,7.03
2022-09-03T10:03:29.946Z,7.10
2022-09-03T10:06:21.197Z,9.25
2022-09-03T10:08:49.401Z,5.22
2022-09-03T10:11:21.345Z,7.97
2022-09-03T10:13:50.389Z,6.75
2022-09-03T10:16:27.498Z,5.47
2022-09-03T10:19:04.104Z,4.95
2022-09-03T10:21:36.456Z,5.20
2022-09-03T10:24:20.344Z,7.32
2022-09-03T10:26:49.473Z,6.03
2022-09-03T10:29:21.192Z,6.73
2022-09-03T10:32:01.614Z,6.68
2022-09-03T10:34:35.026Z,6.28
2022-09-03T10:37:15.292Z,5.30
2022-09-03T10:39:58.883Z,6.07
2022-09-03T10:42:42.357Z,5.65
2022-09-03T10:45:19.601Z,5.43
2022-09-03T10:48:18.181Z,4.53
2022-09-03T10:50:49.752Z,4.67
2022-09-03T10:53:39.652Z,5.78
2022-09-03T10:56:13.237Z,5.88
2022-09-03T10:58:52.949Z,5.00
2022-09-03T11:01:28.979Z,5.30
2022-09-03T11:04:15.144Z,4.65
2022-09-03T11:06:52.146Z,4.68
2022-09-03T11:09:24.868Z,4.88
2022-09-03T11:11:56.246Z,4.80
2022-09-03T11:14:35.179Z,4.68
2022-09-03T11:17:10.121Z,4.90
2022-09-03T11:19:48.126Z,4.20
2022-09-03T11:22:20.983Z,3.15
2022-09-03T11:24:56.573Z,4.22
2022-09-03T11:27:37.123Z,5.05
2022-09-03T11:30:08.686Z,4.07
2022-09-03T11:32:49.732Z,3.10
2022-09-03T11:35:28.848Z,4.33
2022-09-03T11:38:01.425Z,3.10
2022-09-03T11:40:35.799Z,4.60
2022-09-03T11:43:14.593Z,3.45
2022-09-03T11:45:44.253Z,4.13
2022-09-03T11:48:20.152Z,3.33
2022-09-03T11:50:55.833Z,6.60
2022-09-03T11:53:28.183Z,5.10
2022-09-03T11:55:59.823Z,6.85
2022-09-03T11:58:32.812Z,6.50
2022-09-03T12:01:03.901Z,3.67
2022-09-03T12:03:43.218Z,3.50
2022-09-03T12:06:29.209Z,5.03
2022-09-03T12:09:17.512Z,3.45
2022-09-03T12:11:58.842Z,4.88
2022-09-03T12:14:37.341Z,4.00
2022-09-03T12:17:15.019Z,4.65
2022-09-03T12:19:53.379Z,5.43
2022-09-03T12:22:24.118Z,4.10
2022-09-03T12:24:51.985Z,3.60
2022-09-03T12:27:24.609Z,3.30
2022-09-03T12:29:57.915Z,3.45
2022-09-03T12:32:30.131Z,3.35
2022-09-03T12:34:57.796Z,2.87
2022-09-03T12:40:21.988Z,2.77
2022-09-03T12:42:50.450Z,3.33
2022-09-03T12:45:22.990Z,4.63
2022-09-03T12:47:53.263Z,3.17
2022-09-03T12:50:23.275Z,4.13
2022-09-03T12:52:54.257Z,2.58
2022-09-03T12:55:34.334Z,3.13
2022-09-03T12:58:11.401Z,2.67
2022-09-03T13:00:46.531Z,2.65
2022-09-03T13:03:21.087Z,4.03
2022-09-03T13:05:53.876Z,2.80
2022-09-03T13:08:24.410Z,3.10
2022-09-03T13:10:54.650Z,2.17
2022-09-03T13:13:25.154Z,2.60
2022-09-03T13:16:01.978Z,2.85
2022-09-03T13:18:42.134Z,4.25
2022-09-03T13:21:18.743Z,2.20
2022-09-03T13:24:03.397Z,2.45
2022-09-03T13:26:43.221Z,2.35
2022-09-03T13:29:35.426Z,2.22
2022-09-03T13:32:17.197Z,2.10
2022-09-03T13:34:52.042Z,3.08
2022-09-03T13:37:26.781Z,3.05
2022-09-03T13:39:59.966Z,2.10
2022-09-03T13:42:33.598Z,3.25
2022-09-03T13:45:07.650Z,2.40
2022-09-03T13:48:02.190Z,2.33
2022-09-03T13:50:42.195Z,2.45
2022-09-03T13:53:19.454Z,2.80
2022-09-03T13:55:56.734Z,2.90
2022-09-03T13:58:30.966Z,2.05
2022-09-03T14:01:11.579Z,1.52
2022-09-03T14:03:48.952Z,1.98
2022-09-03T14:06:30.899Z,1.65
2022-09-03T14:09:07.666Z,1.63
2022-09-03T14:11:50.432Z,2.55
2022-09-03T14:14:30.599Z,4.13
2022-09-03T14:17:03.092Z,3.53
2022-09-03T14:19:40.179Z,2.60
2022-09-03T14:22:15.008Z,2.10
2022-09-03T14:24:50.161Z,11.35
2022-09-03T14:27:26.764Z,2.80
2022-09-03T14:29:59.389Z,1.67
2022-09-03T14:32:44.125Z,3.35
2022-09-03T14:35:39.567Z,2.55
2022-09-03T14:38:52.290Z,4.30
2022-09-03T14:41:37.613Z,2.30
2022-09-03T14:44:33.919Z,4.40
2022-09-03T14:47:15.214Z,3.75
2022-09-03T14:49:58.533Z,3.42
2022-09-03T14:52:54.586Z,3.83
2022-09-03T14:55:50.622Z,3.97
2022-09-03T14:58:36.228Z,10.68
2022-09-03T15:01:08.594Z,5.60
2022-09-03T15:04:04.406Z,3.10
2022-09-03T15:06:42.685Z,2.42
2022-09-03T15:09:23.874Z,2.75
2022-09-03T15:11:56.800Z,2.53
2022-09-03T15:14:31.034Z,1.80
2022-09-03T15:17:01.936Z,2.63
2022-09-03T15:19:58.201Z,2.55
2022-09-03T15:22:43.991Z,2.15
2022-09-03T15:25:23.971Z,2.78
2022-09-03T15:28:06.850Z,1.85
2022-09-03T15:30:40.900Z,2.42
2022-09-03T15:33:22.128Z,4.63
2022-09-03T15:36:12.625Z,2.67
2022-09-03T15:38:46.193Z,3.45
2022-09-03T15:41:33.696Z,4.07
2022-09-03T15:44:03.343Z,5.45
2022-09-03T15:46:39.488Z,7.85
2022-09-03T15:49:19.306Z,6.93
2022-09-03T15:51:57.531Z,6.63
2022-09-03T15:54:37.255Z,7.63
2022-09-03T15:57:11.119Z,5.53
2022-09-03T15:59:42.547Z,26.10
2022-09-03T16:02:16.035Z,8.68
2022-09-03T16:05:09.945Z,22.15
2022-09-03T16:07:56.299Z,12.93
2022-09-03T16:10:39.115Z,12.30
2022-09-03T16:13:14.734Z,11.85
2022-09-03T16:15:47.070Z,6.78
2022-09-03T16:18:24.336Z,13.70
2022-09-03T16:20:59.930Z,11.13
2022-09-03T16:23:33.536Z,10.52
2022-09-03T16:26:06.235Z,7.90
2022-09-03T16:28:42.912Z,4.70
2022-09-03T16:31:21.284Z,4.35
2022-09-03T16:34:01.607Z,2.75
2022-09-03T16:36:42.241Z,3.83
2022-09-03T16:39:20.654Z,4.47
2022-09-03T16:41:57.286Z,3.10
2022-09-03T16:44:33.778Z,4.60
2022-09-03T16:47:10.049Z,4.75
2022-09-03T16:49:55.673Z,16.48
2022-09-03T16:52:39.431Z,5.22
2022-09-03T16:55:22.572Z,8.75
2022-09-03T16:58:01.621Z,7.38
2022-09-03T17:00:45.561Z,5.80
2022-09-03T17:03:41.019Z,3.22
2022-09-03T17:06:25.958Z,4.75
2022-09-03T17:09:02.227Z,3.60
2022-09-03T17:12:00.305Z,4.90
2022-09-03T17:15:01.548Z,3.97
2022-09-03T17:17:48.705Z,5.53
2022-09-03T17:20:22.598Z,5.25
2022-09-03T17:23:09.642Z,4.22
2022-09-03T17:25:39.029Z,4.68
2022-09-03T17:28:22.645Z,4.20
2022-09-03T17:30:58.022Z,4.25
2022-09-03T17:33:47.415Z,5.00
2022-09-03T17:36:18.518Z,5.18
2022-09-03T17:39:22.274Z,4.80
2022-09-03T17:41:53.816Z,4.20
2022-09-03T17:44:47.280Z,5.40
2022-09-03T17:47:35.213Z,8.63
2022-09-03T17:50:14.058Z,5.03
2022-09-03T17:52:48.490Z,4.25
2022-09-03T17:55:25.315Z,4.65
2022-09-03T17:57:58.897Z,5.35
2022-09-03T18:00:34.951Z,5.03
2022-09-03T18:03:09.698Z,4.65
2022-09-03T18:05:46.941Z,5.25
2022-09-03T18:08:23.089Z,5.60
2022-09-03T18:11:08.242Z,6.15
2022-09-03T18:13:47.534Z,7.65
2022-09-03T18:16:20.691Z,5.20
2022-09-03T18:18:52.137Z,7.03
2022-09-03T18:21:41.308Z,5.35
2022-09-03T18:24:42.213Z,5.75
2022-09-03T18:27:33.683Z,6.13
2022-09-03T18:30:22.686Z,8.68
2022-09-03T18:33:08.159Z,8.48
2022-09-03T18:35:53.754Z,8.45
2022-09-03T18:38:44.128Z,6.63
2022-09-03T18:41:43.306Z,5.63
2022-09-03T18:44:39.054Z,8.73
2022-09-03T18:51:02.080Z,6.13
2022-09-03T18:53:58.576Z,7.13
2022-09-03T18:56:53.818Z,8.30
2022-09-03T19:00:00.703Z,9.35
2022-09-03T19:02:52.164Z,7.00
2022-09-03T19:05:44.647Z,8.77
2022-09-03T19:08:36.701Z,8.07
2022-09-03T19:11:27.742Z,8.13
2022-09-03T19:14:16.626Z,6.75
2022-09-03T19:17:18.677Z,6.80
2022-09-03T19:20:20.261Z,9.65
2022-09-03T19:23:05.534Z,8.73
2022-09-03T19:25:50.953Z,9.85
2022-09-03T19:28:37.993Z,9.65
2022-09-03T19:31:49.678Z,7.20
2022-09-03T19:35:00.993Z,9.70
2022-09-03T19:37:53.934Z,8.52
2022-09-03T19:41:08.591Z,11.38
2022-09-03T19:44:03.969Z,11.80
2022-09-03T19:46:58.493Z,13.77
2022-09-03T19:49:57.409Z,18.27
2022-09-03T20:30:11.856Z,9.15
2022-09-03T20:33:11.179Z,8.73
2022-09-03T20:35:51.903Z,11.50
2022-09-03T20:38:38.284Z,8.52
2022-09-03T20:41:18.171Z,9.55
2022-09-03T20:44:00.783Z,9.02
2022-09-03T20:46:46.074Z,8.45
2022-09-03T20:49:26.263Z,8.93
2022-09-03T20:52:06.046Z,9.53
2022-09-03T20:54:38.867Z,9.55
2022-09-03T20:57:26.907Z,9.07
2022-09-03T21:00:05.631Z,9.37
2022-09-03T21:02:55.202Z,8.40
2022-09-03T21:05:28.046Z,9.15
2022-09-03T21:08:08.784Z,8.30
2022-09-03T21:10:46.385Z,11.93
2022-09-03T21:13:22.970Z,9.63
2022-09-03T21:15:59.103Z,8.73
2022-09-03T21:18:38.486Z,10.52
2022-09-03T21:21:20.112Z,9.23
2022-09-03T21:23:56.577Z,9.80
2022-09-03T21:26:29.272Z,10.07
2022-09-03T21:29:03.399Z,8.57
2022-09-03T21:31:38.575Z,10.55
2022-09-03T21:34:12.513Z,11.25
2022-09-03T21:36:42.677Z,13.98
2022-09-03T21:39:15.857Z,12.45
2022-09-03T21:41:54.246Z,14.13
2022-09-03T21:44:43.598Z,11.35
2022-09-03T21:47:12.682Z,9.95
2022-09-03T21:50:00.013Z,11.77
2022-09-03T21:52:34.709Z,13.52
2022-09-03T21:55:04.331Z,11.13
2022-09-03T21:57:41.144Z,9.70
2022-09-03T22:00:18.618Z,10.30
2022-09-03T22:02:47.267Z,10.85
2022-09-03T22:05:16.245Z,9.05
2022-09-03T22:08:14.343Z,10.23
2022-09-03T22:10:54.943Z,8.68
2022-09-03T22:13:31.029Z,8.00
2022-09-03T22:16:07.140Z,8.20
2022-09-03T22:18:37.889Z,8.70
2022-09-03T22:21:14.219Z,7.57
2022-09-03T22:23:55.717Z,7.80
2022-09-03T22:26:38.202Z,8.52
2022-09-03T22:29:15.420Z,8.50
2022-09-03T22:31:52.421Z,7.43
2022-09-03T22:34:31.233Z,9.10
2022-09-03T22:37:03.688Z,7.53
2022-09-03T22:39:37.392Z,7.25
2022-09-03T22:42:31.656Z,7.00
2022-09-03T22:45:24.922Z,7.00
2022-09-03T22:48:03.437Z,8.32
2022-09-03T22:50:35.138Z,6.45
2022-09-03T22:53:17.873Z,6.20
2022-09-03T22:55:51.842Z,6.07
2022-09-03T22:58:24.074Z,6.68
2022-09-03T23:01:00.054Z,6.00
2022-09-03T23:03:36.912Z,6.22
2022-09-03T23:06:07.791Z,6.63
2022-09-03T23:08:42.265Z,5.75
2022-09-03T23:11:25.702Z,5.95
2022-09-03T23:14:01.430Z,5.78
2022-09-03T23:16:38.801Z,5.43
2022-09-03T23:21:52.327Z,5.28
2022-09-03T23:24:26.638Z,5.88
2022-09-03T23:26:54.919Z,5.88
2022-09-03T23:29:27.951Z,5.63
2022-09-03T23:31:59.679Z,6.10
2022-09-03T23:34:28.464Z,5.95
2022-09-03T23:40:19.339Z,5.68
2022-09-03T23:43:13.676Z,5.93
2022-09-03T23:45:49.788Z,7.13
2022-09-03T23:48:26.294Z,6.65
2022-09-03T23:51:09.601Z,7.75
2022-09-03T23:53:46.793Z,8.85
2022-09-03T23:56:45.486Z,10.93
2022-09-03T23:59:21.052Z,9.60
